Time;durP1;ratioP1;P1;durP2;ratioP2;P2;SDS_P1;SDS_P2;PMS_P1;PMS_P2;Temp;Humidity;BMP_temperature;BMP_pressure;BME280_temperature;BME280_humidity;BME280_pressure;Samples;Min_cycle;Max_cycle;Signal;HPM_P1;HPM_P2
2023/12/12 00:01:21;;;;;;;1999.90;999.90;;;;;;;-0.36;90.83;96144.56;5093886;28;20075;-62
2023/12/12 00:03:48;;;;;;;1999.90;999.90;;;;;;;-0.37;91.11;96141.13;5093812;28;20127;-63
2023/12/12 00:06:17;;;;;;;1999.90;999.90;;;;;;;-0.36;91.56;96141.97;5093739;28;20040;-64
2023/12/12 00:08:44;;;;;;;1999.90;999.90;;;;;;;-0.29;91.94;96153.97;5093736;28;20051;-61
2023/12/12 00:11:11;;;;;;;1999.90;999.90;;;;;;;-0.26;91.70;96161.69;5093783;28;20044;-61
2023/12/12 00:13:38;;;;;;;1999.90;999.90;;;;;;;-0.30;92.01;96162.53;5093585;28;20052;-61
2023/12/12 00:16:07;;;;;;;1999.90;999.90;;;;;;;-0.33;91.68;96163.38;5093576;28;20044;-62
2023/12/12 00:18:35;;;;;;;1999.90;999.90;;;;;;;-0.28;91.82;96166.81;5093343;28;20474;-64
2023/12/12 00:21:02;;;;;;;1999.90;999.90;;;;;;;-0.21;91.48;96162.50;5093680;28;20052;-64
2023/12/12 00:23:30;;;;;;;1999.90;999.90;;;;;;;-0.21;91.71;96154.78;5093530;28;20502;-65
2023/12/12 00:25:57;;;;;;;1999.90;999.90;;;;;;;-0.24;91.30;96164.25;5093531;28;20052;-62
2023/12/12 00:28:25;;;;;;;1999.90;999.90;;;;;;;-0.24;92.14;96169.38;5093414;28;20429;-61
2023/12/12 00:30:52;;;;;;;1999.90;999.90;;;;;;;-0.21;92.22;96177.09;5093405;28;20048;-64
2023/12/12 00:33:19;;;;;;;1999.90;999.90;;;;;;;-0.17;92.17;96179.66;5093298;28;20167;-62
2023/12/12 00:35:46;;;;;;;1999.90;999.90;;;;;;;-0.12;92.30;96179.63;5093342;28;20474;-63
2023/12/12 00:38:13;;;;;;;1999.90;999.90;;;;;;;-0.14;92.32;96184.81;5093295;28;20048;-63
2023/12/12 00:40:42;;;;;;;1999.90;999.90;;;;;;;-0.08;92.52;96183.06;5093230;28;20121;-61
2023/12/12 00:43:09;;;;;;;1999.90;999.90;;;;;;;-0.05;92.40;96181.38;5093293;28;20048;-63
2023/12/12 00:45:36;;;;;;;1999.90;999.90;;;;;;;-0.05;92.27;96183.94;5093417;28;20130;-61
2023/12/12 00:48:04;;;;;;;1999.90;999.90;;;;;;;-0.01;92.09;96174.47;5093236;28;20079;-62
2023/12/12 00:50:31;;;;;;;1999.90;999.90;;;;;;;-0.01;92.35;96170.22;5093195;28;20105;-60
2023/12/12 00:52:58;;;;;;;1999.90;999.90;;;;;;;0.03;91.92;96171.03;5093203;28;20044;-62
2023/12/12 00:55:24;;;;;;;1999.90;999.90;;;;;;;0.04;92.47;96166.75;5093009;28;20505;-61
2023/12/12 00:57:53;;;;;;;1999.90;999.90;;;;;;;0.02;92.73;96165.91;5093052;28;20086;-62
2023/12/12 01:00:20;;;;;;;1999.90;999.90;;;;;;;0.05;93.05;96160.75;5093124;28;20079;-61
2023/12/12 01:02:47;;;;;;;1999.90;999.90;;;;;;;0.09;93.14;96162.47;5092925;28;20050;-61
2023/12/12 01:05:14;;;;;;;1999.90;999.90;;;;;;;0.15;93.17;96167.56;5093040;28;20048;-61
2023/12/12 01:07:41;;;;;;;1999.90;999.90;;;;;;;0.19;93.12;96164.16;5092903;28;20105;-60
2023/12/12 01:10:10;;;;;;;1999.90;999.90;;;;;;;0.27;92.79;96158.97;5092966;28;20052;-61
2023/12/12 01:12:37;;;;;;;1999.90;999.90;;;;;;;0.28;92.74;96160.69;5092902;28;20127;-64
2023/12/12 01:15:07;;;;;;;1999.90;999.90;;;;;;;0.22;92.75;96153.00;5093001;28;20052;-62
2023/12/12 01:17:34;;;;;;;1999.90;999.90;;;;;;;0.27;92.88;96150.41;5093155;28;20070;-62
2023/12/12 01:20:02;;;;;;;1999.90;999.90;;;;;;;0.24;93.16;96141.81;5092892;28;20048;-63
2023/12/12 01:22:29;;;;;;;1999.90;999.90;;;;;;;0.30;93.44;96138.38;5092838;28;20063;-64
2023/12/12 01:24:56;;;;;;;1999.90;999.90;;;;;;;0.33;93.29;96125.50;5092917;28;20087;-63
2023/12/12 01:27:23;;;;;;;1999.90;999.90;;;;;;;0.37;93.00;96122.03;5092778;28;20048;-63
2023/12/12 01:29:50;;;;;;;1999.90;999.90;;;;;;;0.41;93.42;96116.88;5093924;28;20048;-60
2023/12/12 01:32:20;;;;;;;1999.90;999.90;;;;;;;0.35;93.34;96122.91;5096765;28;20048;-62
2023/12/12 01:34:47;;;;;;;1999.90;999.90;;;;;;;0.28;94.76;96113.50;5096575;28;20514;-60
2023/12/12 01:37:14;;;;;;;1999.90;999.90;;;;;;;0.35;94.88;96122.91;5096704;28;20055;-60
2023/12/12 01:39:41;;;;;;;1999.90;999.90;;;;;;;0.33;95.04;96137.53;5096757;28;20127;-64
2023/12/12 01:42:08;;;;;;;1999.90;999.90;;;;;;;0.34;94.94;96139.22;5096715;28;20072;-64
2023/12/12 01:44:35;;;;;;;1999.90;999.90;;;;;;;0.34;95.06;96134.94;5096455;28;20504;-62
2023/12/12 01:47:02;;;;;;;1999.90;999.90;;;;;;;0.31;94.80;96146.97;5096522;28;20452;-63
2023/12/12 01:49:31;;;;;;;1999.90;999.90;;;;;;;0.32;94.93;96136.66;5096524;28;20075;-62
2023/12/12 01:51:58;;;;;;;1999.90;999.90;;;;;;;0.30;94.63;96115.22;5096501;28;20398;-64
2023/12/12 01:54:26;;;;;;;1999.90;999.90;;;;;;;0.27;96.06;96116.97;5096243;28;20102;-61
2023/12/12 01:56:55;;;;;;;1999.90;999.90;;;;;;;0.17;97.66;96113.53;5096343;28;20129;-64
2023/12/12 01:59:24;;;;;;;1999.90;999.90;;;;;;;0.22;98.41;96122.13;5096242;28;20055;-64
2023/12/12 02:01:52;;;;;;;1999.90;999.90;;;;;;;0.34;98.83;96128.94;5096137;28;20048;-62
2023/12/12 02:04:20;;;;;;;1999.90;999.90;;;;;;;0.38;98.55;96122.91;5096099;28;20052;-63
2023/12/12 02:06:50;;;;;;;1999.90;999.90;;;;;;;0.42;98.39;96129.75;5096141;28;20143;-61
2023/12/12 02:09:17;;;;;;;1999.90;999.90;;;;;;;0.45;97.86;96142.59;5096113;28;20047;-61
2023/12/12 02:11:44;;;;;;;1999.90;999.90;;;;;;;0.47;97.65;96122.00;5096068;28;20044;-62
2023/12/12 02:14:11;;;;;;;1999.90;999.90;;;;;;;0.45;98.08;96118.59;5096059;28;20105;-61
2023/12/12 02:16:39;;;;;;;1999.90;999.90;;;;;;;0.43;97.81;96099.72;5095889;28;20052;-63
2023/12/12 02:19:06;;;;;;;1999.90;999.90;;;;;;;0.45;98.28;96110.88;5095842;28;20135;-63
2023/12/12 02:21:34;;;;;;;1999.90;999.90;;;;;;;0.50;98.75;96115.13;5095743;28;20047;-61
2023/12/12 02:24:01;;;;;;;1999.90;999.90;;;;;;;0.54;98.70;96117.69;5095805;28;20090;-61
2023/12/12 02:26:28;;;;;;;1999.90;999.90;;;;;;;0.58;98.22;96127.13;5095829;28;20052;-62
2023/12/12 02:28:56;;;;;;;1999.90;999.90;;;;;;;0.61;98.27;96127.09;5095448;28;20564;-64
2023/12/12 02:31:23;;;;;;;1999.90;999.90;;;;;;;0.67;98.52;96134.78;5095686;28;20061;-65
2023/12/12 02:33:50;;;;;;;1999.90;999.90;;;;;;;0.72;98.60;96143.34;5095607;28;20131;-63
2023/12/12 02:36:17;;;;;;;1999.90;999.90;;;;;;;0.80;98.29;96132.13;5095535;28;20135;-62
2023/12/12 02:38:45;;;;;;;1999.90;999.90;;;;;;;0.80;98.86;96133.00;5095635;28;20048;-62
2023/12/12 02:41:13;;;;;;;1999.90;999.90;;;;;;;0.84;98.95;96124.38;5095521;28;20410;-62
2023/12/12 02:43:40;;;;;;;1999.90;999.90;;;;;;;0.87;98.58;96116.63;5095418;28;20040;-65
2023/12/12 02:46:07;;;;;;;1999.90;999.90;;;;;;;0.87;97.90;96108.91;5095451;28;20120;-63
2023/12/12 02:48:34;;;;;;;1999.90;999.90;;;;;;;0.87;98.04;96108.91;5095418;28;20051;-65
2023/12/12 02:51:01;;;;;;;1999.90;999.90;;;;;;;0.86;99.31;96094.34;5095392;28;20139;-63
2023/12/12 02:53:28;;;;;;;1999.90;999.90;;;;;;;0.93;100.00;96086.56;5095093;28;20481;-63
2023/12/12 02:55:56;;;;;;;1999.90;999.90;;;;;;;1.04;100.00;96087.34;5094938;28;20679;-62
2023/12/12 02:58:23;;;;;;;1999.90;999.90;;;;;;;1.07;100.00;96078.72;5095316;28;20478;-62
2023/12/12 03:00:50;;;;;;;1999.90;999.90;;;;;;;1.26;100.00;96080.28;5095189;28;20130;-62
2023/12/12 03:03:17;;;;;;;1999.90;999.90;;;;;;;1.56;100.00;96082.59;5095116;28;20044;-62
2023/12/12 03:05:44;;;;;;;1999.90;999.90;;;;;;;1.68;100.00;96062.75;5094891;28;20079;-62
2023/12/12 03:08:11;;;;;;;1999.90;999.90;;;;;;;1.75;100.00;96036.84;5094892;28;20070;-65
2023/12/12 03:10:38;;;;;;;1999.90;999.90;;;;;;;1.96;100.00;95993.59;5094980;28;20044;-64
2023/12/12 03:13:07;;;;;;;1999.90;999.90;;;;;;;2.07;100.00;95993.47;5094869;28;20086;-63
2023/12/12 03:15:34;;;;;;;1999.90;999.90;;;;;;;2.04;99.58;96036.53;5094731;28;20135;-62
2023/12/12 03:18:01;;;;;;;1999.90;999.90;;;;;;;2.21;98.43;96057.81;5094770;28;20079;-61
2023/12/12 03:20:28;;;;;;;1999.90;999.90;;;;;;;2.32;97.81;96051.66;5094840;28;20083;-64
2023/12/12 03:22:55;;;;;;;1999.90;999.90;;;;;;;2.35;96.66;96060.22;5094625;28;20551;-62
2023/12/12 03:25:22;;;;;;;1999.90;999.90;;;;;;;2.33;96.30;96072.31;5094695;28;20048;-61
2023/12/12 03:27:49;;;;;;;1999.90;999.90;;;;;;;2.25;95.76;96072.41;5094726;28;20052;-63
2023/12/12 03:30:18;;;;;;;1999.90;999.90;;;;;;;2.25;95.32;96077.56;5094252;28;20044;-65
2023/12/12 03:32:45;;;;;;;1999.90;999.90;;;;;;;2.27;95.47;96099.06;5094403;28;20118;-64
2023/12/12 03:35:12;;;;;;;1999.90;999.90;;;;;;;2.30;94.72;96110.19;5094249;28;20044;-64
2023/12/12 03:37:39;;;;;;;1999.90;999.90;;;;;;;2.25;94.83;96103.38;5094376;28;20048;-62
2023/12/12 03:40:08;;;;;;;1999.90;999.90;;;;;;;2.27;94.27;96108.50;5094302;28;20076;-63
2023/12/12 03:42:35;;;;;;;1999.90;999.90;;;;;;;2.29;93.90;96114.53;5094330;28;20048;-64
2023/12/12 03:45:03;;;;;;;1999.90;999.90;;;;;;;2.32;92.99;96106.72;5094531;28;20052;-63
2023/12/12 03:47:31;;;;;;;1999.90;999.90;;;;;;;2.32;93.09;96095.56;5094133;28;20040;-62
2023/12/12 03:49:58;;;;;;;1999.90;999.90;;;;;;;2.29;92.92;96093.00;5094231;28;20040;-64
2023/12/12 03:52:25;;;;;;;1999.90;999.90;;;;;;;2.25;92.96;96087.88;5093550;28;20052;-63
2023/12/12 03:54:52;;;;;;;1999.90;999.90;;;;;;;2.22;92.96;96094.78;5094126;28;20561;-62
2023/12/12 03:57:19;;;;;;;1999.90;999.90;;;;;;;2.24;92.82;96093.06;5094037;28;20546;-63
2023/12/12 03:59:46;;;;;;;1999.90;999.90;;;;;;;2.23;93.02;96096.53;5093968;28;20098;-64
2023/12/12 04:02:14;;;;;;;1999.90;999.90;;;;;;;2.17;93.07;96094.00;5093863;28;20058;-64
2023/12/12 04:04:42;;;;;;;1999.90;999.90;;;;;;;2.12;93.14;96101.81;5093887;28;20063;-62
2023/12/12 04:07:09;;;;;;;1999.90;999.90;;;;;;;2.06;93.32;96092.41;5093744;28;20134;-63
2023/12/12 04:09:36;;;;;;;1999.90;999.90;;;;;;;2.03;93.73;96102.75;5093851;28;20121;-60
2023/12/12 04:12:04;;;;;;;1999.90;999.90;;;;;;;2.04;93.68;96095.88;5093664;28;20462;-62
2023/12/12 04:14:31;;;;;;;1999.90;999.90;;;;;;;2.08;93.44;96098.38;5093808;28;20044;-63
2023/12/12 04:16:58;;;;;;;1999.90;999.90;;;;;;;2.11;93.72;96098.34;5093645;28;20052;-63
2023/12/12 04:19:25;;;;;;;1999.90;999.90;;;;;;;2.12;93.93;96091.47;5093766;28;20083;-61
2023/12/12 04:21:53;;;;;;;1999.90;999.90;;;;;;;2.14;93.78;96092.31;5093735;28;20056;-60
2023/12/12 04:24:20;;;;;;;1999.90;999.90;;;;;;;2.12;93.85;96094.06;5093567;28;20080;-61
2023/12/12 04:26:47;;;;;;;1999.90;999.90;;;;;;;2.15;93.80;96099.19;5093546;28;20591;-61
2023/12/12 04:29:14;;;;;;;1999.90;999.90;;;;;;;2.10;93.82;96101.81;5093306;28;20087;-65
2023/12/12 04:31:41;;;;;;;1999.90;999.90;;;;;;;2.13;93.92;96101.78;5093496;28;20523;-64
2023/12/12 04:34:09;;;;;;;1999.90;999.90;;;;;;;2.13;93.50;96095.75;5093502;28;20160;-63
2023/12/12 04:36:37;;;;;;;1999.90;999.90;;;;;;;2.16;93.82;96092.31;5093342;28;20563;-62
2023/12/12 04:39:08;;;;;;;1999.90;999.90;;;;;;;2.20;94.01;96096.56;5093159;28;20561;-64
2023/12/12 04:41:40;;;;;;;1999.90;999.90;;;;;;;2.22;93.74;96094.78;5093296;28;20135;-63
2023/12/12 04:44:07;;;;;;;1999.90;999.90;;;;;;;2.13;93.77;96088.03;5093326;28;20044;-63
2023/12/12 04:46:35;;;;;;;1999.90;999.90;;;;;;;2.10;94.29;96086.34;5093160;28;20047;-63
2023/12/12 04:49:02;;;;;;;1999.90;999.90;;;;;;;2.15;93.79;96091.44;5093243;28;20490;-60
2023/12/12 04:51:29;;;;;;;1999.90;999.90;;;;;;;2.15;94.03;96094.03;5093186;28;20044;-62
2023/12/12 04:53:57;;;;;;;1999.90;999.90;;;;;;;2.14;93.84;96094.91;5093220;28;20044;-60
2023/12/12 04:56:25;;;;;;;1999.90;999.90;;;;;;;2.12;94.12;96097.50;5093053;28;20052;-64
2023/12/12 04:58:52;;;;;;;1999.90;999.90;;;;;;;2.13;94.07;96101.78;5093026;28;20080;-62
2023/12/12 05:01:19;;;;;;;1999.90;999.90;;;;;;;2.08;94.93;96106.13;5093098;28;20044;-62
2023/12/12 05:03:47;;;;;;;1999.90;999.90;;;;;;;2.09;94.68;96115.59;5092915;28;20511;-62
2023/12/12 05:06:14;;;;;;;1999.90;999.90;;;;;;;2.14;94.85;96120.72;5096773;28;20048;-62
2023/12/12 05:08:41;;;;;;;1999.90;999.90;;;;;;;2.17;94.83;96120.69;5097300;28;20052;-62
2023/12/12 05:11:09;;;;;;;1999.90;999.90;;;;;;;2.12;94.81;96127.63;5097182;28;20101;-64
2023/12/12 05:13:37;;;;;;;1999.90;999.90;;;;;;;2.17;94.78;96135.31;5097072;28;20048;-60
2023/12/12 05:16:07;;;;;;;1999.90;999.90;;;;;;;2.17;94.75;96141.34;5097032;28;20052;-61
2023/12/12 05:18:34;;;;;;;1999.90;999.90;;;;;;;2.16;93.83;96138.78;5097252;28;20044;-64
2023/12/12 05:21:02;;;;;;;1999.90;999.90;;;;;;;2.17;93.83;96133.59;5097136;28;20185;-62
2023/12/12 05:23:29;;;;;;;1999.90;999.90;;;;;;;2.17;93.57;96136.16;5097080;28;20059;-63
2023/12/12 05:25:57;;;;;;;1999.90;999.90;;;;;;;2.13;93.64;96144.78;5096915;28;20234;-62
2023/12/12 05:28:25;;;;;;;1999.90;999.90;;;;;;;2.14;93.82;96142.19;5097067;28;20087;-62
2023/12/12 05:30:54;;;;;;;1999.90;999.90;;;;;;;2.12;93.69;96145.69;5096630;28;20541;-62
2023/12/12 05:33:22;;;;;;;1999.90;999.90;;;;;;;2.13;93.66;96144.78;5096877;28;20049;-65
2023/12/12 05:35:49;;;;;;;1999.90;999.90;;;;;;;2.11;93.54;96156.88;5096680;28;20135;-62
2023/12/12 05:38:16;;;;;;;1999.90;999.90;;;;;;;2.09;93.81;96162.06;5096765;28;20057;-63
2023/12/12 05:40:43;;;;;;;1999.90;999.90;;;;;;;2.10;93.44;96155.16;5096646;28;20119;-63
2023/12/12 05:43:11;;;;;;;1999.90;999.90;;;;;;;2.09;93.55;96154.31;5096536;28;20044;-63
2023/12/12 05:45:38;;;;;;;1999.90;999.90;;;;;;;2.12;93.29;96148.25;5096634;28;20052;-63
2023/12/12 05:48:07;;;;;;;1999.90;999.90;;;;;;;2.12;93.10;96148.25;5096674;28;20048;-63
2023/12/12 05:50:34;;;;;;;1999.90;999.90;;;;;;;2.11;92.49;96141.41;5096549;28;20093;-63
2023/12/12 05:53:01;;;;;;;1999.90;999.90;;;;;;;2.15;92.39;96153.38;5096257;28;20444;-62
2023/12/12 05:55:29;;;;;;;1999.90;999.90;;;;;;;2.06;92.28;96156.91;5096310;28;20086;-61
2023/12/12 05:57:57;;;;;;;1999.90;999.90;;;;;;;2.05;92.15;96156.94;5096333;28;20051;-62
2023/12/12 06:00:27;;;;;;;1999.90;999.90;;;;;;;1.96;91.44;96158.72;5096301;28;20051;-64
2023/12/12 06:02:54;;;;;;;1999.90;999.90;;;;;;;1.89;91.38;96155.38;5096299;28;20485;-62
2023/12/12 06:05:23;;;;;;;1999.90;999.90;;;;;;;1.84;91.03;96153.72;5096119;28;20048;-62
2023/12/12 06:07:50;;;;;;;1999.90;999.90;;;;;;;1.80;90.66;96152.03;5096110;28;20052;-63
2023/12/12 06:10:18;;;;;;;1999.90;999.90;;;;;;;1.74;90.79;96148.63;5096086;28;20076;-62
2023/12/12 06:12:45;;;;;;;1999.90;999.90;;;;;;;1.68;90.62;96151.25;5096106;28;20397;-61
2023/12/12 06:15:13;;;;;;;1999.90;999.90;;;;;;;1.60;90.53;96148.72;5095375;28;20063;-61
2023/12/12 06:17:40;;;;;;;1999.90;999.90;;;;;;;1.59;90.06;96151.31;5095908;28;20131;-61
2023/12/12 06:20:08;;;;;;;1999.90;999.90;;;;;;;1.58;90.20;96167.69;5095971;28;20052;-63
2023/12/12 06:22:37;;;;;;;1999.90;999.90;;;;;;;1.60;91.28;96166.78;5095875;28;20051;-61
2023/12/12 06:25:06;;;;;;;1999.90;999.90;;;;;;;1.71;91.54;96178.72;5095949;28;20129;-63
2023/12/12 06:27:33;;;;;;;1999.90;999.90;;;;;;;1.97;92.98;96182.81;5095797;28;20048;-63
2023/12/12 06:30:01;;;;;;;1999.90;999.90;;;;;;;3.26;93.77;96185.59;5095460;28;20079;-62
2023/12/12 06:32:28;;;;;;;1999.90;999.90;;;;;;;5.17;86.45;96193.38;5095599;28;20497;-64
2023/12/12 06:34:55;;;;;;;1999.90;999.90;;;;;;;7.03;75.20;96199.97;5095614;28;20047;-63
2023/12/12 06:37:23;;;;;;;1999.90;999.90;;;;;;;8.71;64.92;96211.13;5095470;28;20052;-63
2023/12/12 06:39:51;;;;;;;1999.90;999.90;;;;;;;10.13;59.88;96215.31;5095496;28;20052;-64
2023/12/12 06:42:18;;;;;;;1999.90;999.90;;;;;;;10.49;56.28;96230.44;5095435;28;20052;-62
2023/12/12 06:44:46;;;;;;;1999.90;999.90;;;;;;;9.92;55.79;96202.25;5095337;28;20485;-62
2023/12/12 06:47:14;;;;;;;1999.90;999.90;;;;;;;9.22;56.93;96203.22;5095346;28;20044;-62
2023/12/12 06:49:42;;;;;;;1999.90;999.90;;;;;;;8.51;58.26;96211.78;5095309;28;20071;-64
2023/12/12 06:52:09;;;;;;;1999.90;999.90;;;;;;;7.94;59.58;96213.69;5095312;28;20059;-63
2023/12/12 06:54:36;;;;;;;1999.90;999.90;;;;;;;7.48;60.93;96205.59;5095285;28;20132;-62
2023/12/12 06:57:05;;;;;;;1999.90;999.90;;;;;;;7.65;63.00;96209.41;5095117;28;20138;-63
2023/12/12 06:59:32;;;;;;;1999.90;999.90;;;;;;;9.16;58.77;96204.28;5095125;28;20041;-63
2023/12/12 07:01:59;;;;;;;1999.90;999.90;;;;;;;10.96;53.96;96218.78;5095109;28;20052;-63
2023/12/12 07:04:27;;;;;;;1999.90;999.90;;;;;;;12.54;49.78;96221.03;5095062;28;20044;-63
2023/12/12 07:06:54;;;;;;;1999.90;999.90;;;;;;;13.97;45.83;96223.13;5094973;28;20044;-62
2023/12/12 07:09:21;;;;;;;1999.90;999.90;;;;;;;15.35;43.21;96222.06;5094858;28;20050;-59
2023/12/12 07:11:49;;;;;;;1999.90;999.90;;;;;;;15.59;41.89;96215.34;5094894;28;20547;-65
2023/12/12 07:14:19;;;;;;;1999.90;999.90;;;;;;;15.97;40.84;96212.06;5094952;28;20079;-62
2023/12/12 07:16:46;;;;;;;1999.90;999.90;;;;;;;15.87;40.29;96213.56;5094851;28;20047;-64
2023/12/12 07:19:18;;;;;;;1999.90;999.90;;;;;;;15.41;41.70;96208.50;5095103;28;20394;-64
2023/12/12 07:21:46;;;;;;;1999.90;999.90;;;;;;;16.36;40.60;96211.31;5094681;28;20500;-63
2023/12/12 07:24:14;;;;;;;1999.90;999.90;;;;;;;17.53;38.73;96216.63;5094664;28;20140;-62
2023/12/12 07:26:45;;;;;;;1999.90;999.90;;;;;;;17.86;37.79;96207.22;5094296;28;20051;-63
2023/12/12 07:29:17;;;;;;;1999.90;999.90;;;;;;;17.22;37.59;96216.16;5093902;28;20044;-60
2023/12/12 07:31:46;;;;;;;1999.90;999.90;;;;;;;17.66;36.80;96214.78;5094600;28;20133;-61
2023/12/12 07:34:14;;;;;;;1999.90;999.90;;;;;;;17.41;37.89;96216.53;5094581;28;20101;-65
2023/12/12 07:36:41;;;;;;;1999.90;999.90;;;;;;;17.66;38.42;96232.44;5094423;28;20052;-62
2023/12/12 07:39:08;;;;;;;1999.90;999.90;;;;;;;17.80;37.64;96237.59;5094377;28;20516;-62
2023/12/12 07:41:35;;;;;;;1999.90;999.90;;;;;;;18.47;36.94;96246.94;5094375;28;20144;-63
2023/12/12 07:44:03;;;;;;;1999.90;999.90;;;;;;;18.39;36.15;96242.25;5094256;28;20048;-64
2023/12/12 07:46:30;;;;;;;1999.90;999.90;;;;;;;18.60;36.49;96253.00;5094295;28;20071;-65
2023/12/12 07:48:58;;;;;;;1999.90;999.90;;;;;;;19.02;34.76;96257.81;5094219;28;20044;-64
2023/12/12 07:51:27;;;;;;;1999.90;999.90;;;;;;;19.81;33.84;96252.66;5094101;28;20044;-62
2023/12/12 07:53:54;;;;;;;1999.90;999.90;;;;;;;20.27;32.58;96256.09;5094086;28;20105;-62
2023/12/12 07:56:21;;;;;;;1999.90;999.90;;;;;;;20.35;32.48;96252.78;5093946;28;20044;-61
2023/12/12 07:58:48;;;;;;;1999.90;999.90;;;;;;;20.23;32.62;96256.44;5094112;28;20048;-64
2023/12/12 08:01:17;;;;;;;1999.90;999.90;;;;;;;20.60;32.37;96247.25;5093891;28;20048;-63
2023/12/12 08:03:44;;;;;;;1999.90;999.90;;;;;;;21.25;31.09;96244.44;5093885;28;20050;-64
2023/12/12 08:06:13;;;;;;;1999.90;999.90;;;;;;;21.83;30.58;96247.50;5093938;28;20048;-62
2023/12/12 08:08:40;;;;;;;1999.90;999.90;;;;;;;22.17;29.90;96244.47;5093856;28;20048;-65
2023/12/12 08:11:13;;;;;;;1999.90;999.90;;;;;;;21.98;30.27;96252.44;5093883;28;20101;-63
2023/12/12 08:13:40;;;;;;;1999.90;999.90;;;;;;;22.69;29.18;96245.19;5093916;28;20387;-63
2023/12/12 08:16:08;;;;;;;1999.90;999.90;;;;;;;22.48;28.85;96243.50;5093754;28;20048;-62
2023/12/12 08:18:37;;;;;;;1999.90;999.90;;;;;;;23.01;28.47;96240.53;5093615;28;20105;-62
2023/12/12 08:21:06;;;;;;;1999.90;999.90;;;;;;;23.48;27.15;96245.88;5093655;28;20051;-62
2023/12/12 08:23:36;;;;;;;1999.90;999.90;;;;;;;22.72;28.85;96236.91;5093677;28;20052;-60
2023/12/12 08:26:05;;;;;;;1999.90;999.90;;;;;;;21.72;29.83;96237.78;5093528;28;20040;-63
2023/12/12 08:28:32;;;;;;;1999.90;999.90;;;;;;;21.68;30.41;96245.19;5093576;28;20044;-62
2023/12/12 08:30:59;;;;;;;1999.90;999.90;;;;;;;21.48;30.65;96240.75;5093371;28;20101;-63
2023/12/12 08:33:26;;;;;;;1999.90;999.90;;;;;;;20.40;32.30;96223.19;5093496;28;20076;-64
2023/12/12 08:35:53;;;;;;;1999.90;999.90;;;;;;;19.60;33.42;96210.13;5093398;28;20048;-60
2023/12/12 08:38:21;;;;;;;1999.90;999.90;;;;;;;18.92;34.33;96206.47;5093434;28;20068;-60
2023/12/12 08:40:49;;;;;;;1999.90;999.90;;;;;;;18.74;35.04;96206.09;5093336;28;20106;-64
2023/12/12 08:43:17;;;;;;;1999.90;999.90;;;;;;;18.21;35.36;96215.34;5093244;28;20131;-63
2023/12/12 08:45:45;;;;;;;1999.90;999.90;;;;;;;17.70;36.28;96230.44;5093261;28;20086;-61
2023/12/12 08:48:13;;;;;;;1999.90;999.90;;;;;;;17.05;37.86;96224.28;5093320;28;20135;-64
2023/12/12 08:50:40;;;;;;;1999.90;999.90;;;;;;;16.27;40.05;96213.63;5093088;28;20079;-65
2023/12/12 08:53:07;;;;;;;1999.90;999.90;;;;;;;16.03;41.18;96213.44;5093198;28;20043;-63
2023/12/12 08:55:34;;;;;;;1999.90;999.90;;;;;;;15.94;40.46;96208.75;5093211;28;20202;-62
2023/12/12 08:58:04;;;;;;;1999.90;999.90;;;;;;;15.69;41.04;96202.44;5093324;28;20180;-61
2023/12/12 09:00:31;;;;;;;1999.90;999.90;;;;;;;15.01;41.90;96195.19;5093082;28;20040;-61
2023/12/12 09:02:59;;;;;;;1999.90;999.90;;;;;;;14.23;44.70;96187.44;5092995;28;20834;-60
2023/12/12 09:05:26;;;;;;;1999.90;999.90;;;;;;;13.60;46.17;96194.50;5093052;28;20044;-64
2023/12/12 09:07:53;;;;;;;1999.90;999.90;;;;;;;13.10;45.26;96203.25;5092991;28;20040;-62
2023/12/12 09:10:20;;;;;;;1999.90;999.90;;;;;;;12.79;45.79;96199.63;5092950;28;20048;-64
2023/12/12 09:12:47;;;;;;;1999.90;999.90;;;;;;;12.33;47.40;96192.34;5093018;28;20458;-64
2023/12/12 09:15:17;;;;;;;1999.90;999.90;;;;;;;12.10;49.68;96200.44;5093177;28;20044;-65
2023/12/12 09:17:44;;;;;;;1999.90;999.90;;;;;;;11.93;50.12;96193.41;5092810;28;20571;-61
2023/12/12 09:20:12;;;;;;;1999.90;999.90;;;;;;;11.74;51.37;96193.44;5093015;28;20113;-64
2023/12/12 09:22:39;;;;;;;1999.90;999.90;;;;;;;11.56;51.63;96182.09;5092861;28;20059;-63
2023/12/12 09:25:06;;;;;;;1999.90;999.90;;;;;;;11.45;51.24;96170.34;5092811;28;20048;-65
2023/12/12 09:27:34;;;;;;;1999.90;999.90;;;;;;;11.33;50.55;96177.00;5092893;28;20488;-65
2023/12/12 09:30:01;;;;;;;1999.90;999.90;;;;;;;11.30;49.40;96166.69;5092616;28;20055;-62
2023/12/12 09:32:29;;;;;;;1999.90;999.90;;;;;;;11.28;49.04;96163.28;5093062;28;20048;-64
2023/12/12 09:34:56;;;;;;;1999.90;999.90;;;;;;;11.21;49.56;96157.50;5092928;28;20071;-63
2023/12/12 09:37:24;;;;;;;1999.90;999.90;;;;;;;11.08;50.86;96156.34;5092793;28;20083;-62
2023/12/12 09:39:51;;;;;;;1999.90;999.90;;;;;;;10.94;52.97;96154.38;5092642;28;20070;-64
2023/12/12 09:42:21;;;;;;;1999.90;999.90;;;;;;;10.96;53.46;96157.78;5092729;28;20047;-65
2023/12/12 09:44:57;;;;;;;1999.90;999.90;;;;;;;11.10;53.51;96151.88;5092687;28;20135;-64
2023/12/12 09:47:24;;;;;;;1999.90;999.90;;;;;;;11.09;52.64;96150.19;5092708;28;20101;-63
2023/12/12 09:49:54;;;;;;;1999.90;999.90;;;;;;;11.20;53.66;96145.28;5092754;28;20409;-61
2023/12/12 09:52:21;;;;;;;1999.90;999.90;;;;;;;11.31;53.50;96138.69;5096235;28;20092;-65
2023/12/12 09:54:48;;;;;;;1999.90;999.90;;;;;;;11.17;53.70;96140.19;5096325;28;20070;-63
2023/12/12 09:57:17;;;;;;;1999.90;999.90;;;;;;;11.15;53.46;96138.59;5096316;28;20059;-65
2023/12/12 09:59:44;;;;;;;1999.90;999.90;;;;;;;11.21;52.34;96141.78;5096371;28;20044;-62
2023/12/12 10:02:16;;;;;;;1999.90;999.90;;;;;;;11.15;53.52;96141.19;5096296;28;20048;-62
2023/12/12 10:04:44;;;;;;;1999.90;999.90;;;;;;;11.18;53.23;96141.06;5096308;28;20075;-62
2023/12/12 10:07:18;;;;;;;1999.90;999.90;;;;;;;11.14;54.11;96135.13;5096179;28;20051;-63
2023/12/12 10:09:46;;;;;;;1999.90;999.90;;;;;;;11.26;54.26;96133.72;5096211;28;20097;-63
2023/12/12 10:12:13;;;;;;;1999.90;999.90;;;;;;;11.28;53.13;96134.47;5096175;28;20109;-63
2023/12/12 10:14:44;;;;;;;1999.90;999.90;;;;;;;11.35;52.62;96130.63;5096136;28;20135;-65
2023/12/12 10:17:12;;;;;;;1999.90;999.90;;;;;;;11.41;51.53;96128.66;5095834;28;20060;-65
2023/12/12 10:19:39;;;;;;;1999.90;999.90;;;;;;;11.48;51.90;96136.16;5095959;28;20125;-64
2023/12/12 10:22:08;;;;;;;1999.90;999.90;;;;;;;11.44;51.49;96134.59;5095921;28;20040;-65
2023/12/12 10:24:40;;;;;;;1999.90;999.90;;;;;;;11.52;51.37;96144.69;5096076;28;20458;-62
2023/12/12 10:27:08;;;;;;;1999.90;999.90;;;;;;;11.50;51.71;96144.75;5095982;28;20056;-65
2023/12/12 10:29:35;;;;;;;1999.90;999.90;;;;;;;11.57;51.88;96141.84;5095736;28;20052;-63
2023/12/12 10:32:03;;;;;;;1999.90;999.90;;;;;;;11.63;50.61;96144.19;5096164;28;20048;-64
2023/12/12 10:34:31;;;;;;;1999.90;999.90;;;;;;;11.55;51.24;96143.69;5095640;28;20044;-64
2023/12/12 10:36:59;;;;;;;1999.90;999.90;;;;;;;11.62;50.59;96142.50;5095515;28;20056;-63
2023/12/12 10:39:30;;;;;;;1999.90;999.90;;;;;;;11.62;52.93;96145.13;5095552;28;20079;-63
2023/12/12 10:41:59;;;;;;;1999.90;999.90;;;;;;;11.61;53.96;96148.63;5095550;28;20051;-65
2023/12/12 10:44:32;;;;;;;1999.90;999.90;;;;;;;11.72;54.66;96150.75;5095471;28;20048;-65
2023/12/12 10:46:59;;;;;;;1999.90;999.90;;;;;;;11.76;54.14;96154.91;5095480;28;20059;-61
2023/12/12 10:49:31;;;;;;;1999.90;999.90;;;;;;;11.67;54.33;96158.81;5095379;28;20048;-61
2023/12/12 10:52:01;;;;;;;1999.90;999.90;;;;;;;11.93;54.91;96155.84;5095275;28;20050;-65
2023/12/12 10:54:29;;;;;;;1999.90;999.90;;;;;;;12.01;54.33;96156.31;5095365;28;20123;-62
2023/12/12 10:57:00;;;;;;;1999.90;999.90;;;;;;;12.07;54.60;96153.41;5095338;28;20079;-64
2023/12/12 10:59:28;;;;;;;1999.90;999.90;;;;;;;11.97;54.59;96150.38;5095014;28;20075;-64